Time;durP1;ratioP1;P1;durP2;ratioP2;P2;SDS_P1;SDS_P2;PMS_P1;PMS_P2;Temp;Humidity;BMP_temperature;BMP_pressure;BME280_temperature;BME280_humidity;BME280_pressure;Samples;Min_cycle;Max_cycle;Signal;HPM_P1;HPM_P2
2023/06/04 00:00:02;;;;;;;7.57;2.40;;;;;;;-145.70;100.00;63560.63;5052326;28;20224;-65
2023/06/04 00:02:30;;;;;;;6.20;2.30;;;;;;;-145.70;100.00;63560.63;5052800;28;20127;-65
2023/06/04 00:05:00;;;;;;;4.30;2.10;;;;;;;-145.70;100.00;63560.63;5058055;28;20103;-64
2023/06/04 00:07:26;;;;;;;4.90;2.00;;;;;;;-145.70;100.00;63560.63;5052910;28;20164;-64
2023/06/04 00:09:54;;;;;;;4.80;2.20;;;;;;;-145.70;100.00;63560.63;5077113;28;20467;-64
2023/06/04 00:12:19;;;;;;;4.95;2.08;;;;;;;-145.70;100.00;63560.63;5054814;28;20035;-63
2023/06/04 00:14:45;;;;;;;5.22;2.45;;;;;;;-145.70;100.00;63560.63;5061553;28;20024;-65
2023/06/04 00:17:10;;;;;;;4.53;2.15;;;;;;;-145.70;100.00;63560.63;5037469;28;20040;-66
2023/06/04 00:19:40;;;;;;;7.40;2.50;;;;;;;-145.70;100.00;63560.63;5053623;28;20023;-64
2023/06/04 00:22:06;;;;;;;4.10;1.85;;;;;;;-145.70;100.00;63560.63;5051433;28;20313;-65
2023/06/04 00:24:32;;;;;;;5.03;2.10;;;;;;;-145.70;100.00;63560.63;5071604;28;21239;-65
2023/06/04 00:26:57;;;;;;;4.78;2.40;;;;;;;-145.70;100.00;63560.63;5038652;28;20475;-64
2023/06/04 00:29:23;;;;;;;5.25;2.35;;;;;;;-145.70;100.00;63560.63;5065462;28;20050;-63
2023/06/04 00:31:51;;;;;;;5.32;2.70;;;;;;;-145.70;100.00;63560.63;5059949;28;20023;-64
2023/06/04 00:34:19;;;;;;;5.28;2.40;;;;;;;-145.70;100.00;63560.63;5046801;28;20027;-65
2023/06/04 00:36:47;;;;;;;6.22;2.72;;;;;;;-145.70;100.00;63560.63;5058317;28;20115;-63
2023/06/04 00:39:13;;;;;;;9.50;3.28;;;;;;;-145.70;100.00;63560.63;5040002;28;20019;-63
2023/06/04 00:41:38;;;;;;;8.55;3.35;;;;;;;-145.70;100.00;63560.63;5078127;28;20122;-62
2023/06/04 00:44:06;;;;;;;6.65;3.03;;;;;;;-145.70;100.00;63560.63;5038710;28;20019;-63
2023/06/04 00:46:31;;;;;;;7.65;3.13;;;;;;;-145.70;100.00;63560.63;5079389;28;20032;-66
2023/06/04 00:49:02;;;;;;;7.13;3.08;;;;;;;-145.70;100.00;63560.63;5040559;28;20028;-65
2023/06/04 00:51:30;;;;;;;8.60;3.70;;;;;;;-145.70;100.00;63560.63;5071502;28;20032;-67
2023/06/04 00:53:59;;;;;;;6.18;3.00;;;;;;;-145.70;100.00;63560.63;5053857;28;20028;-69
2023/06/04 00:56:24;;;;;;;7.23;2.87;;;;;;;-145.70;100.00;63560.63;5034791;28;20184;-64
2023/06/04 00:58:52;;;;;;;6.82;3.33;;;;;;;-145.70;100.00;63560.63;5058871;28;20154;-67
2023/06/04 01:01:37;;;;;;;6.55;3.38;;;;;;;-145.70;100.00;63560.63;5054859;28;20397;-64
2023/06/04 01:04:07;;;;;;;5.43;3.00;;;;;;;-145.70;100.00;63560.63;5059714;28;20029;-63
2023/06/04 01:06:40;;;;;;;6.88;2.80;;;;;;;-145.70;100.00;63560.63;5077804;28;20058;-63
2023/06/04 01:09:06;;;;;;;5.78;2.65;;;;;;;-145.70;100.00;63560.63;5041833;28;20038;-63
2023/06/04 01:11:36;;;;;;;5.70;2.90;;;;;;;-145.70;100.00;63560.63;5071804;28;20032;-62
2023/06/04 01:14:08;;;;;;;8.30;3.22;;;;;;;-145.70;100.00;63560.63;5052615;28;20545;-62
2023/06/04 01:17:02;;;;;;;8.05;2.97;;;;;;;-145.70;100.00;63560.63;5055990;28;20046;-62
2023/06/04 01:19:51;;;;;;;6.65;3.20;;;;;;;-145.70;100.00;63560.63;5049255;28;20585;-63
2023/06/04 01:22:45;;;;;;;6.05;2.83;;;;;;;-145.70;100.00;63560.63;5070725;28;20046;-65
2023/06/04 01:25:27;;;;;;;5.70;2.70;;;;;;;-145.70;100.00;63560.63;5006508;28;20024;-63
2023/06/04 01:27:56;;;;;;;6.28;2.88;;;;;;;-145.70;100.00;63560.63;5060051;28;20056;-62
2023/06/04 01:30:27;;;;;;;6.63;3.63;;;;;;;-145.70;100.00;63560.63;5052580;28;20466;-62
2023/06/04 01:32:56;;;;;;;6.22;2.95;;;;;;;-145.70;100.00;63560.63;5058002;28;20106;-63
2023/06/04 01:35:22;;;;;;;6.82;2.97;;;;;;;-145.70;100.00;63560.63;5044828;28;20332;-64
2023/06/04 01:37:51;;;;;;;5.55;3.20;;;;;;;-145.70;100.00;63560.63;5042595;28;20092;-62
2023/06/04 01:40:16;;;;;;;7.00;3.13;;;;;;;-145.70;100.00;63560.63;5077870;28;20561;-64
2023/06/04 01:42:44;;;;;;;5.13;2.72;;;;;;;-145.70;100.00;63560.63;5052266;28;20119;-64
2023/06/04 01:45:10;;;;;;;5.35;2.80;;;;;;;-145.70;100.00;63560.63;5061623;28;20027;-65
2023/06/04 01:47:38;;;;;;;10.30;3.10;;;;;;;-145.70;100.00;63560.63;5027630;28;20032;-64
2023/06/04 01:50:09;;;;;;;5.57;3.10;;;;;;;-145.70;100.00;63560.63;5057012;28;20066;-64
2023/06/04 01:52:35;;;;;;;6.50;3.45;;;;;;;-145.70;100.00;63560.63;5056409;28;20055;-65
2023/06/04 01:55:00;;;;;;;7.20;3.17;;;;;;;-145.70;100.00;63560.63;5056197;28;20557;-65
2023/06/04 01:57:28;;;;;;;7.75;3.63;;;;;;;-145.70;100.00;63560.63;5055553;28;20031;-63
2023/06/04 01:59:53;;;;;;;6.57;3.45;;;;;;;-145.70;100.00;63560.63;5054894;28;20043;-66
2023/06/04 02:02:18;;;;;;;5.80;3.25;;;;;;;-145.70;100.00;63560.63;5076177;28;20427;-65
2023/06/04 02:04:51;;;;;;;7.30;3.25;;;;;;;-145.70;100.00;63560.63;5052929;28;20063;-65
2023/06/04 02:07:23;;;;;;;6.45;2.90;;;;;;;-145.70;100.00;63560.63;5075880;28;20032;-64
2023/06/04 02:09:49;;;;;;;7.18;3.38;;;;;;;-145.70;100.00;63560.63;5045787;28;20020;-64
2023/06/04 02:12:17;;;;;;;6.35;3.40;;;;;;;-145.70;100.00;63560.63;5054282;28;20871;-64
2023/06/04 02:14:42;;;;;;;7.38;3.08;;;;;;;-145.70;100.00;63560.63;5076225;28;20028;-64
2023/06/04 02:17:12;;;;;;;7.32;3.20;;;;;;;-145.70;100.00;63560.63;5052094;28;20185;-64
2023/06/04 02:19:44;;;;;;;;;;;;;;;-145.70;100.00;63560.63;5043773;28;20027;-65
2023/06/04 02:22:11;;;;;;;6.10;3.50;;;;;;;-145.70;100.00;63560.63;5072257;28;19914;-64
2023/06/04 02:24:38;;;;;;;6.20;3.25;;;;;;;-145.70;100.00;63560.63;5086906;28;20028;-63
2023/06/04 02:27:08;;;;;;;6.82;3.20;;;;;;;-145.70;100.00;63560.63;5038166;28;20733;-64
2023/06/04 02:29:36;;;;;;;6.50;3.38;;;;;;;-145.70;100.00;63560.63;5057299;28;20043;-64
2023/06/04 02:32:02;;;;;;;6.22;3.20;;;;;;;-145.70;100.00;63560.63;5036762;28;20024;-65
2023/06/04 02:34:30;;;;;;;5.93;3.30;;;;;;;-145.70;100.00;63560.63;5044870;28;20468;-64
2023/06/04 02:36:56;;;;;;;6.15;3.25;;;;;;;-145.70;100.00;63560.63;5061611;28;20028;-65
2023/06/04 02:39:22;;;;;;;7.15;3.47;;;;;;;-145.70;100.00;63560.63;5045056;28;20035;-64
2023/06/04 02:41:47;;;;;;;6.95;3.33;;;;;;;-145.70;100.00;63560.63;5060038;28;20016;-64
2023/06/04 02:44:12;;;;;;;6.07;3.08;;;;;;;-145.70;100.00;63560.63;5045989;28;20430;-66
2023/06/04 02:46:41;;;;;;;6.60;3.00;;;;;;;-145.70;100.00;63560.63;5052242;28;20028;-66
2023/06/04 02:49:06;;;;;;;6.50;3.30;;;;;;;-145.70;100.00;63560.63;5066634;28;20101;-65
2023/06/04 02:51:34;;;;;;;6.15;2.90;;;;;;;-145.70;100.00;63560.63;5036613;28;20032;-65
2023/06/04 02:54:02;;;;;;;6.63;3.20;;;;;;;-145.70;100.00;63560.63;5035410;28;20039;-62
2023/06/04 02:56:28;;;;;;;6.70;3.20;;;;;;;-145.70;100.00;63560.63;5084320;28;20503;-63
2023/06/04 02:58:56;;;;;;;7.30;3.67;;;;;;;-145.70;100.00;63560.63;5044851;28;20036;-65
2023/06/04 03:01:26;;;;;;;6.68;3.47;;;;;;;-145.70;100.00;63560.63;5053028;28;20687;-63
2023/06/04 03:03:53;;;;;;;5.90;3.08;;;;;;;-145.70;100.00;63560.63;5045761;28;20127;-65
2023/06/04 03:06:22;;;;;;;7.13;3.00;;;;;;;-145.70;100.00;63560.63;5062009;28;20020;-64
2023/06/04 03:08:50;;;;;;;6.85;3.00;;;;;;;-145.70;100.00;63560.63;5055153;28;20050;-66
2023/06/04 03:11:17;;;;;;;6.32;3.50;;;;;;;-145.70;100.00;63560.63;5061320;28;20013;-64
2023/06/04 03:13:42;;;;;;;5.72;3.00;;;;;;;-145.70;100.00;63560.63;5040807;28;20717;-63
2023/06/04 03:16:09;;;;;;;6.35;3.30;;;;;;;-145.70;100.00;63560.63;5054292;28;20024;-65
2023/06/04 03:18:41;;;;;;;6.10;3.05;;;;;;;-145.70;100.00;63560.63;5041153;28;20077;-64
2023/06/04 03:21:13;;;;;;;6.47;3.58;;;;;;;-145.70;100.00;63560.63;5042116;28;20031;-64
2023/06/04 03:23:41;;;;;;;6.50;3.30;;;;;;;-145.70;100.00;63560.63;5055282;28;20036;-63
2023/06/04 03:26:12;;;;;;;6.93;3.17;;;;;;;-145.70;100.00;63560.63;5047030;28;20130;-63
2023/06/04 03:28:38;;;;;;;6.15;3.30;;;;;;;-145.70;100.00;63560.63;5060358;28;20039;-64
2023/06/04 03:31:03;;;;;;;6.32;3.22;;;;;;;-145.70;100.00;63560.63;5073937;28;20024;-64
2023/06/04 03:33:31;;;;;;;10.77;3.53;;;;;;;-145.70;100.00;63560.63;5058764;28;20922;-65
2023/06/04 03:35:59;;;;;;;6.18;3.50;;;;;;;-145.70;100.00;63560.63;5062412;28;20489;-61
2023/06/04 03:38:25;;;;;;;6.63;3.33;;;;;;;-145.70;100.00;63560.63;5078782;28;20038;-65
2023/06/04 03:40:52;;;;;;;7.88;3.58;;;;;;;-145.70;100.00;63560.63;5062249;28;20032;-65
2023/06/04 03:43:20;;;;;;;9.43;3.47;;;;;;;-145.70;100.00;63560.63;5059750;28;20027;-63
2023/06/04 03:45:47;;;;;;;6.15;3.50;;;;;;;-145.70;100.00;63560.63;5061618;28;20690;-64
2023/06/04 03:48:13;;;;;;;6.03;3.20;;;;;;;-145.70;100.00;63560.63;5037939;28;20436;-62
2023/06/04 03:50:38;;;;;;;7.65;3.53;;;;;;;-145.70;100.00;63560.63;5044031;28;20459;-65
2023/06/04 03:53:07;;;;;;;7.15;3.85;;;;;;;-145.70;100.00;63560.63;5075909;28;20062;-63
2023/06/04 03:55:33;;;;;;;6.22;3.50;;;;;;;-145.70;100.00;63560.63;5058155;28;20046;-62
2023/06/04 03:57:58;;;;;;;6.75;3.30;;;;;;;-145.70;100.00;63560.63;5051557;28;20016;-63
2023/06/04 04:00:27;;;;;;;6.32;3.30;;;;;;;-145.70;100.00;63560.63;5057523;28;20103;-65
2023/06/04 04:02:52;;;;;;;6.10;3.30;;;;;;;-145.70;100.00;63560.63;5060685;28;20044;-63
2023/06/04 04:05:17;;;;;;;6.78;3.70;;;;;;;-145.70;100.00;63560.63;5064332;28;20622;-62
2023/06/04 04:07:43;;;;;;;6.07;3.40;;;;;;;-145.70;100.00;63560.63;5058900;28;20764;-64
2023/06/04 04:10:09;;;;;;;8.63;3.53;;;;;;;-145.70;100.00;63560.63;5055060;28;20028;-63
2023/06/04 04:12:35;;;;;;;6.55;3.42;;;;;;;-145.70;100.00;63560.63;5044469;28;20069;-64
2023/06/04 04:15:00;;;;;;;6.15;3.50;;;;;;;-145.70;100.00;63560.63;5054336;28;20088;-62
2023/06/04 04:17:26;;;;;;;6.68;3.63;;;;;;;-145.70;100.00;63560.63;5077026;28;20062;-63
2023/06/04 04:19:51;;;;;;;6.50;3.60;;;;;;;-145.70;100.00;63560.63;5073712;28;20125;-66
2023/06/04 04:22:17;;;;;;;6.80;2.90;;;;;;;-145.70;100.00;63560.63;5064254;28;20654;-63
2023/06/04 04:24:43;;;;;;;5.57;2.92;;;;;;;-145.70;100.00;63560.63;5062803;28;20027;-62
2023/06/04 04:27:10;;;;;;;6.70;2.97;;;;;;;-145.70;100.00;63560.63;5042681;28;20044;-62
2023/06/04 04:29:36;;;;;;;5.35;2.92;;;;;;;-145.70;100.00;63560.63;5065206;28;20702;-65
2023/06/04 04:32:11;;;;;;;6.50;3.17;;;;;;;-145.70;100.00;63560.63;5060048;28;20028;-65
2023/06/04 04:34:39;;;;;;;6.70;3.20;;;;;;;-145.70;100.00;63560.63;5038983;28;20016;-63
2023/06/04 04:37:09;;;;;;;7.07;3.80;;;;;;;-145.70;100.00;63560.63;5060984;28;20019;-62
2023/06/04 04:39:35;;;;;;;5.88;3.25;;;;;;;-145.70;100.00;63560.63;5057585;28;20047;-65
2023/06/04 04:42:02;;;;;;;9.30;4.20;;;;;;;-145.70;100.00;63560.63;5043012;28;20031;-62
2023/06/04 04:44:29;;;;;;;7.45;3.17;;;;;;;-145.70;100.00;63560.63;5040992;28;20100;-65
2023/06/04 04:46:54;;;;;;;7.32;3.67;;;;;;;-145.70;100.00;63560.63;5074536;28;20032;-66
2023/06/04 04:49:20;;;;;;;6.80;4.03;;;;;;;-145.70;100.00;63560.63;5062883;28;20096;-62
2023/06/04 04:51:46;;;;;;;6.70;3.30;;;;;;;-145.70;100.00;63560.63;5073111;28;20055;-63
2023/06/04 04:54:11;;;;;;;6.45;3.40;;;;;;;-145.70;100.00;63560.63;5078544;28;20032;-65
2023/06/04 04:56:39;;;;;;;7.10;4.03;;;;;;;-145.70;100.00;63560.63;5076554;28;20047;-63
2023/06/04 04:59:04;;;;;;;7.25;3.80;;;;;;;-145.70;100.00;63560.63;5060234;28;20658;-61
2023/06/04 05:01:32;;;;;;;6.15;3.35;;;;;;;-145.70;100.00;63560.63;5052183;28;20177;-61
2023/06/04 05:03:57;;;;;;;7.45;3.63;;;;;;;-145.70;100.00;63560.63;5033158;28;20025;-63
2023/06/04 05:06:23;;;;;;;6.25;3.33;;;;;;;-145.70;100.00;63560.63;5057657;28;20035;-62
2023/06/04 05:08:50;;;;;;;6.47;3.15;;;;;;;-145.70;100.00;63560.63;5071850;28;20067;-62
2023/06/04 05:11:16;;;;;;;5.68;2.97;;;;;;;-145.70;100.00;63560.63;5078918;28;20020;-61
2023/06/04 05:13:43;;;;;;;5.97;2.70;;;;;;;-145.70;100.00;63560.63;5049873;28;20621;-61
2023/06/04 05:16:11;;;;;;;5.28;2.53;;;;;;;-145.70;100.00;63560.63;5060161;28;20028;-62
2023/06/04 05:18:40;;;;;;;5.97;2.75;;;;;;;-145.70;100.00;63560.63;5038197;28;20042;-60
2023/06/04 05:21:06;;;;;;;5.07;2.63;;;;;;;-145.70;100.00;63560.63;5075881;28;20032;-62
2023/06/04 05:23:34;;;;;;;5.00;2.47;;;;;;;-145.70;100.00;63560.63;5040549;28;20034;-62
2023/06/04 05:26:01;;;;;;;5.80;2.38;;;;;;;-145.70;100.00;63560.63;5040067;28;20439;-61
2023/06/04 05:28:27;;;;;;;4.82;2.72;;;;;;;-145.70;100.00;63560.63;5054832;28;20024;-63
2023/06/04 05:30:58;;;;;;;4.57;2.42;;;;;;;-145.70;100.00;63560.63;5052751;28;20055;-62
2023/06/04 05:33:24;;;;;;;5.32;2.65;;;;;;;-145.70;100.00;63560.63;5058115;28;20078;-62
2023/06/04 05:35:53;;;;;;;6.45;2.60;;;;;;;-145.70;100.00;63560.63;5076924;28;20028;-63
2023/06/04 05:38:25;;;;;;;5.97;2.90;;;;;;;-145.70;100.00;63560.63;5048369;28;20035;-64
2023/06/04 05:40:54;;;;;;;6.35;2.60;;;;;;;-145.70;100.00;63560.63;5061170;28;20089;-64
2023/06/04 05:43:20;;;;;;;5.33;2.60;;;;;;;-145.70;100.00;63560.63;5040907;28;20027;-64
2023/06/04 05:45:51;;;;;;;5.75;2.40;;;;;;;-145.70;100.00;63560.63;5058011;28;20450;-64
2023/06/04 05:48:16;;;;;;;5.70;2.45;;;;;;;-145.70;100.00;63560.63;5060513;28;20371;-65
2023/06/04 05:50:42;;;;;;;6.18;2.53;;;;;;;-145.70;100.00;63560.63;5056607;28;20100;-64
2023/06/04 05:53:07;;;;;;;4.80;2.60;;;;;;;-145.70;100.00;63560.63;5040781;28;20041;-65
2023/06/04 05:55:32;;;;;;;5.35;2.40;;;;;;;-145.70;100.00;63560.63;5075293;28;20040;-65
2023/06/04 05:57:58;;;;;;;5.50;2.70;;;;;;;-145.70;100.00;63560.63;5059511;28;20538;-67
2023/06/04 06:00:24;;;;;;;5.80;2.90;;;;;;;-145.70;100.00;63560.63;5036117;28;20028;-66
2023/06/04 06:02:52;;;;;;;4.85;2.70;;;;;;;-145.70;100.00;63560.63;5055023;28;20045;-66
2023/06/04 06:05:20;;;;;;;5.05;2.72;;;;;;;-145.70;100.00;63560.63;5032992;28;20271;-64
2023/06/04 06:07:46;;;;;;;5.82;2.47;;;;;;;-145.70;100.00;63560.63;5065175;28;20031;-63
2023/06/04 06:10:12;;;;;;;5.43;2.40;;;;;;;-145.70;100.00;63560.63;5058665;28;20024;-63
2023/06/04 06:12:38;;;;;;;4.97;2.38;;;;;;;-145.70;100.00;63560.63;5081635;28;20035;-64
2023/06/04 06:15:04;;;;;;;7.65;2.50;;;;;;;-145.70;100.00;63560.63;5037634;28;20464;-63
2023/06/04 06:17:30;;;;;;;5.18;2.25;;;;;;;-145.70;100.00;63560.63;5078952;28;21169;-65
2023/06/04 06:19:55;;;;;;;4.50;1.90;;;;;;;-145.70;100.00;63560.63;5074718;28;20535;-64
2023/06/04 06:22:21;;;;;;;4.93;2.28;;;;;;;-145.70;100.00;63560.63;5040364;28;21330;-66
2023/06/04 06:24:50;;;;;;;5.00;2.15;;;;;;;-145.70;100.00;63560.63;5069148;28;20068;-64
2023/06/04 06:27:18;;;;;;;7.30;2.20;;;;;;;-145.70;100.00;63560.63;5057618;28;20036;-64
2023/06/04 06:29:46;;;;;;;6.10;2.22;;;;;;;-145.70;100.00;63560.63;5050794;28;20028;-63
2023/06/04 06:32:11;;;;;;;4.90;2.30;;;;;;;-145.70;100.00;63560.63;5060924;28;20335;-64
2023/06/04 06:34:37;;;;;;;4.65;2.25;;;;;;;-145.70;100.00;63560.63;5066656;28;20021;-64
2023/06/04 06:37:03;;;;;;;5.72;2.13;;;;;;;-145.70;100.00;63560.63;5061408;28;20032;-63
2023/06/04 06:39:29;;;;;;;4.50;2.05;;;;;;;-145.70;100.00;63560.63;5040562;28;20028;-64
2023/06/04 06:41:54;;;;;;;4.50;1.90;;;;;;;-145.70;100.00;63560.63;5044799;28;20655;-63
2023/06/04 06:44:20;;;;;;;4.68;2.20;;;;;;;-145.70;100.00;63560.63;5030805;28;20172;-65
2023/06/04 06:46:46;;;;;;;5.30;2.20;;;;;;;-145.70;100.00;63560.63;5064038;28;20035;-64
2023/06/04 06:49:16;;;;;;;5.38;2.22;;;;;;;-145.70;100.00;63560.63;5058493;28;20062;-65
2023/06/04 06:51:42;;;;;;;4.53;2.28;;;;;;;-145.70;100.00;63560.63;5060566;28;20028;-66
2023/06/04 06:54:11;;;;;;;6.65;2.30;;;;;;;-145.70;100.00;63560.63;5075717;28;20027;-63
2023/06/04 06:56:41;;;;;;;4.88;2.00;;;;;;;-145.70;100.00;63560.63;5061442;28;20285;-63
2023/06/04 06:59:06;;;;;;;4.45;2.05;;;;;;;-145.70;100.00;63560.63;5058900;28;20569;-63
2023/06/04 07:01:36;;;;;;;5.18;2.20;;;;;;;-145.70;100.00;63560.63;5039408;28;20044;-66
2023/06/04 07:04:02;;;;;;;4.80;1.90;;;;;;;-145.70;100.00;63560.63;5023979;28;20102;-65
2023/06/04 07:06:27;;;;;;;5.10;2.20;;;;;;;-145.70;100.00;63560.63;5041667;28;20073;-64
2023/06/04 07:08:55;;;;;;;4.88;2.03;;;;;;;-145.70;100.00;63560.63;5055475;28;20115;-64
2023/06/04 07:11:22;;;;;;;4.70;2.20;;;;;;;-145.70;100.00;63560.63;5053600;28;20545;-63
2023/06/04 07:13:48;;;;;;;4.53;2.20;;;;;;;-145.70;100.00;63560.63;5043541;28;20366;-64
2023/06/04 07:16:13;;;;;;;4.30;2.10;;;;;;;-145.70;100.00;63560.63;5039452;28;20025;-64
2023/06/04 07:18:38;;;;;;;4.18;2.05;;;;;;;-145.70;100.00;63560.63;5056671;28;20433;-64
2023/06/04 07:21:05;;;;;;;4.85;2.13;;;;;;;-145.70;100.00;63560.63;5032684;28;20032;-66
2023/06/04 07:23:30;;;;;;;4.85;2.00;;;;;;;-145.70;100.00;63560.63;5035584;28;20072;-63
2023/06/04 07:25:58;;;;;;;4.25;2.00;;;;;;;-145.70;100.00;63560.63;5069362;28;20107;-66
2023/06/04 07:28:28;;;;;;;4.55;1.90;;;;;;;-145.70;100.00;63560.63;5068360;28;20038;-65
2023/06/04 07:30:53;;;;;;;4.85;1.92;;;;;;;-145.70;100.00;63560.63;5076177;28;20031;-63
2023/06/04 07:33:22;;;;;;;5.07;2.67;;;;;;;-145.70;100.00;63560.63;5077671;28;20434;-63
2023/06/04 07:35:47;;;;;;;4.57;2.30;;;;;;;-145.70;100.00;63560.63;5051071;28;20172;-63
2023/06/04 07:38:12;;;;;;;4.90;2.00;;;;;;;-145.70;100.00;63560.63;5041955;28;20508;-64
2023/06/04 07:40:40;;;;;;;4.85;2.20;;;;;;;-145.70;100.00;63560.63;5046183;28;20032;-63
2023/06/04 07:43:06;;;;;;;4.72;2.28;;;;;;;-145.70;100.00;63560.63;5051391;28;20031;-63
2023/06/04 07:45:31;;;;;;;5.00;2.10;;;;;;;-145.70;100.00;63560.63;5081625;28;20112;-63
2023/06/04 07:47:57;;;;;;;5.43;2.30;;;;;;;-145.70;100.00;63560.63;5067444;28;20091;-64
2023/06/04 07:50:22;;;;;;;4.93;2.03;;;;;;;-145.70;100.00;63560.63;5060403;28;20430;-64
2023/06/04 07:52:50;;;;;;;4.68;1.98;;;;;;;-145.70;100.00;63560.63;5063296;28;20024;-63
2023/06/04 07:55:15;;;;;;;4.63;1.98;;;;;;;-145.70;100.00;63560.63;5050713;28;20123;-65
2023/06/04 07:57:41;;;;;;;4.07;1.80;;;;;;;-145.70;100.00;63560.63;5043442;28;20123;-64
2023/06/04 08:00:08;;;;;;;4.53;2.20;;;;;;;-145.70;100.00;63560.63;5063962;28;20047;-64
2023/06/04 08:02:33;;;;;;;5.38;2.70;;;;;;;-145.70;100.00;63560.63;5056644;28;20048;-62
2023/06/04 08:04:59;;;;;;;7.05;2.35;;;;;;;-145.70;100.00;63560.63;5062568;28;20092;-63
2023/06/04 08:07:27;;;;;;;5.57;2.22;;;;;;;-145.70;100.00;63560.63;5043009;28;20034;-65
2023/06/04 08:09:56;;;;;;;8.38;3.75;;;;;;;-145.70;100.00;63560.63;5072990;28;20527;-63
2023/06/04 08:12:21;;;;;;;6.73;3.80;;;;;;;-145.70;100.00;63560.63;5057760;28;20051;-65
2023/06/04 08:14:47;;;;;;;10.43;4.97;;;;;;;-145.70;100.00;63560.63;5060435;28;20760;-67
2023/06/04 08:17:14;;;;;;;12.82;6.65;;;;;;;-145.70;100.00;63560.63;5054793;28;20036;-66
2023/06/04 08:19:42;;;;;;;12.13;6.18;;;;;;;-145.70;100.00;63560.63;5054136;28;20052;-67
2023/06/04 08:22:11;;;;;;;8.63;5.00;;;;;;;-145.70;100.00;63560.63;5062782;28;20054;-66
2023/06/04 08:24:36;;;;;;;11.27;6.68;;;;;;;-145.70;100.00;63560.63;5059220;28;20390;-65
2023/06/04 08:27:04;;;;;;;7.53;4.25;;;;;;;-145.70;100.00;63560.63;5046941;28;20051;-65
2023/06/04 08:29:30;;;;;;;7.68;3.80;;;;;;;-145.70;100.00;63560.63;5041858;28;20082;-69
2023/06/04 08:31:55;;;;;;;5.97;3.70;;;;;;;-145.70;100.00;63560.63;5044852;28;20521;-66
2023/06/04 08:34:23;;;;;;;5.30;2.22;;;;;;;-145.70;100.00;63560.63;5079225;28;20147;-66
2023/06/04 08:36:51;;;;;;;4.95;1.90;;;;;;;-145.70;100.00;63560.63;5055338;28;20020;-65
2023/06/04 08:39:17;;;;;;;4.85;2.80;;;;;;;-145.70;100.00;63560.63;5058818;28;20801;-66
2023/06/04 08:41:44;;;;;;;6.80;4.28;;;;;;;-145.70;100.00;63560.63;5058451;28;20038;-65
2023/06/04 08:44:12;;;;;;;9.23;5.20;;;;;;;-145.70;100.00;63560.63;5053921;28;20327;-65
2023/06/04 08:46:42;;;;;;;12.43;8.43;;;;;;;-145.70;100.00;63560.63;5054262;28;20374;-66
2023/06/04 08:49:08;;;;;;;7.95;2.80;;;;;;;-145.70;100.00;63560.63;5043641;28;20024;-64
2023/06/04 08:51:37;;;;;;;21.45;14.25;;;;;;;-145.70;100.00;63560.63;5061156;28;20024;-64
2023/06/04 08:54:07;;;;;;;6.32;3.50;;;;;;;-145.70;100.00;63560.63;5055787;28;20065;-65
2023/06/04 08:56:36;;;;;;;5.50;2.50;;;;;;;-145.70;100.00;63560.63;5056243;28;20055;-64
2023/06/04 08:59:03;;;;;;;7.10;3.73;;;;;;;-145.70;100.00;63560.63;5054309;28;20148;-66
2023/06/04 09:01:33;;;;;;;6.15;3.15;;;;;;;-145.70;100.00;63560.63;5042524;28;20031;-65
2023/06/04 09:04:01;;;;;;;22.17;14.77;;;;;;;-145.70;100.00;63560.63;5053930;28;20565;-65
2023/06/04 09:06:27;;;;;;;6.43;2.63;;;;;;;-145.70;100.00;63560.63;5051371;28;20022;-65
2023/06/04 09:08:58;;;;;;;9.57;5.97;;;;;;;-145.70;100.00;63560.63;5034667;28;20016;-64
2023/06/04 09:11:28;;;;;;;6.60;3.35;;;;;;;-145.70;100.00;63560.63;5039044;28;20074;-64
2023/06/04 09:13:53;;;;;;;;;;;;;;;-145.70;100.00;63560.63;5057707;28;20094;-65
2023/06/04 09:16:18;;;;;;;4.57;2.10;;;;;;;-145.70;100.00;63560.63;5056187;28;20015;-64
2023/06/04 09:18:47;;;;;;;4.25;1.85;;;;;;;-145.70;100.00;63560.63;5051749;28;20589;-60
2023/06/04 09:21:14;;;;;;;5.40;2.47;;;;;;;-145.70;100.00;63560.63;5043463;28;20036;-61
2023/06/04 09:23:43;;;;;;;5.90;2.83;;;;;;;-145.70;100.00;63560.63;5056986;28;20032;-64
2023/06/04 09:26:09;;;;;;;14.87;10.77;;;;;;;-145.70;100.00;63560.63;5018172;28;20028;-65
2023/06/04 09:28:37;;;;;;;67.15;47.53;;;;;;;-145.70;100.00;63560.63;5051927;28;20694;-61
2023/06/04 09:31:10;;;;;;;24.40;17.55;;;;;;;-145.70;100.00;63560.63;5050620;28;20027;-62
2023/06/04 09:33:53;;;;;;;19.55;14.40;;;;;;;-145.70;100.00;63560.63;5072555;28;20039;-61
2023/06/04 09:36:21;;;;;;;5.10;2.42;;;;;;;-145.70;100.00;63560.63;5039731;28;20031;-61
2023/06/04 09:38:50;;;;;;;4.00;1.80;;;;;;;-145.70;100.00;63560.63;5030245;28;20066;-61
2023/06/04 09:41:19;;;;;;;4.75;2.67;;;;;;;-145.70;100.00;63560.63;5051419;28;20109;-61
2023/06/04 09:43:45;;;;;;;5.88;2.15;;;;;;;-145.70;100.00;63560.63;5046671;28;20036;-62
2023/06/04 09:46:11;;;;;;;14.20;8.10;;;;;;;-145.70;100.00;63560.63;5050152;28;20035;-60
2023/06/04 09:48:36;;;;;;;11.10;5.72;;;;;;;-145.70;100.00;63560.63;5037265;28;20064;-61
2023/06/04 09:51:10;;;;;;;20.08;13.75;;;;;;;-145.70;100.00;63560.63;5036695;28;20032;-61
2023/06/04 09:53:40;;;;;;;26.88;18.83;;;;;;;-145.70;100.00;63560.63;5043590;28;20071;-61
2023/06/04 09:56:10;;;;;;;8.50;5.28;;;;;;;-145.70;100.00;63560.63;5052750;28;20032;-62
2023/06/04 09:58:37;;;;;;;6.30;2.97;;;;;;;-145.70;100.00;63560.63;5035601;28;20048;-60
2023/06/04 10:01:06;;;;;;;11.55;6.85;;;;;;;-145.70;100.00;63560.63;5035811;28;20408;-60
2023/06/04 10:03:36;;;;;;;6.75;3.60;;;;;;;-145.70;100.00;63560.63;5058602;28;20052;-61
2023/06/04 10:06:08;;;;;;;6.25;3.30;;;;;;;-145.70;100.00;63560.63;5020184;28;20024;-62
2023/06/04 10:08:34;;;;;;;6.40;2.80;;;;;;;-145.70;100.00;63560.63;5054244;28;20055;-60
2023/06/04 10:11:05;;;;;;;7.93;4.43;;;;;;;-145.70;100.00;63560.63;5035613;28;20031;-61
2023/06/04 10:13:37;;;;;;;6.68;3.63;;;;;;;-145.70;100.00;63560.63;5049913;28;20016;-60
2023/06/04 10:16:03;;;;;;;9.75;5.22;;;;;;;-145.70;100.00;63560.63;5052464;28;20059;-61
2023/06/04 10:18:33;;;;;;;9.75;5.75;;;;;;;-145.70;100.00;63560.63;5050678;28;20040;-61
2023/06/04 10:20:59;;;;;;;11.63;6.68;;;;;;;-145.70;100.00;63560.63;5056742;28;20032;-60
2023/06/04 10:23:27;;;;;;;5.03;2.47;;;;;;;-145.70;100.00;63560.63;5060763;28;20047;-61
2023/06/04 10:25:53;;;;;;;5.53;2.40;;;;;;;-145.70;100.00;63560.63;5054944;28;20034;-60
2023/06/04 10:28:20;;;;;;;7.00;3.58;;;;;;;-145.70;100.00;63560.63;5047417;28;20652;-60
2023/06/04 10:30:46;;;;;;;7.80;3.88;;;;;;;-145.70;100.00;63560.63;5053578;28;20220;-61
2023/06/04 10:33:15;;;;;;;4.13;1.83;;;;;;;-145.70;100.00;63560.63;5029008;28;20056;-60
2023/06/04 10:35:45;;;;;;;6.27;3.00;;;;;;;-145.70;100.00;63560.63;5033345;28;20024;-61
2023/06/04 10:38:16;;;;;;;5.10;1.80;;;;;;;-145.70;100.00;63560.63;5033146;28;20285;-61
2023/06/04 10:40:42;;;;;;;4.55;2.22;;;;;;;-145.70;100.00;63560.63;5045651;28;20052;-60
2023/06/04 10:43:09;;;;;;;7.38;2.67;;;;;;;-145.70;100.00;63560.63;5055870;28;20135;-61
2023/06/04 10:45:35;;;;;;;4.45;1.92;;;;;;;-145.70;100.00;63560.63;5036634;28;20028;-61
2023/06/04 10:48:05;;;;;;;5.95;2.33;;;;;;;-145.70;100.00;63560.63;5070911;28;20025;-60
2023/06/04 10:50:35;;;;;;;7.30;4.03;;;;;;;-145.70;100.00;63560.63;5046183;28;20032;-60
2023/06/04 10:53:05;;;;;;;4.70;1.60;;;;;;;-145.70;100.00;63560.63;5043650;28;20111;-60
2023/06/04 10:55:31;;;;;;;4.30;1.83;;;;;;;-145.70;100.00;63560.63;5076174;28;20028;-60
2023/06/04 10:57:58;;;;;;;8.93;4.85;;;;;;;-145.70;100.00;63560.63;5045934;28;20024;-60
2023/06/04 11:11:07;;;;;;;6.28;3.25;;;;;;;-145.70;100.00;63560.63;5079750;28;20089;-59
2023/06/04 11:13:33;;;;;;;6.55;2.30;;;;;;;-145.70;100.00;63560.63;5076888;28;20030;-61
2023/06/04 11:15:58;;;;;;;5.00;1.90;;;;;;;-145.70;100.00;63560.63;5057239;28;20054;-60
2023/06/04 11:18:26;;;;;;;5.07;2.13;;;;;;;-145.70;100.00;63560.63;5056102;28;20031;-61
2023/06/04 11:21:04;;;;;;;3.95;1.55;;;;;;;-145.70;100.00;63560.63;5033449;28;20518;-61